Time;durP1;ratioP1;P1;durP2;ratioP2;P2;SDS_P1;SDS_P2;PMS_P1;PMS_P2;Temp;Humidity;BMP_temperature;BMP_pressure;BME280_temperature;BME280_humidity;BME280_pressure;Samples;Min_cycle;Max_cycle;Signal;HPM_P1;HPM_P2
2023/08/25 00:00:13;;;;;;;3.50;3.00;;;24.80;99.90;;;;;;5088946;28;20460;-61
2023/08/25 00:02:40;;;;;;;3.03;2.53;;;24.80;99.90;;;;;;5084801;28;20486;-60
2023/08/25 00:05:07;;;;;;;3.13;2.83;;;24.80;99.90;;;;;;5084196;28;21002;-60
2023/08/25 00:07:34;;;;;;;3.43;3.00;;;24.80;99.90;;;;;;5084801;28;20859;-60
2023/08/25 00:10:01;;;;;;;6.20;3.73;;;24.80;99.90;;;;;;5085244;28;20538;-59
2023/08/25 00:12:29;;;;;;;2.90;2.70;;;24.80;99.90;;;;;;5087190;28;21170;-60
2023/08/25 00:14:55;;;;;;;3.20;2.87;;;24.80;99.90;;;;;;5087794;28;20464;-60
2023/08/25 00:17:22;;;;;;;3.40;3.20;;;24.80;99.90;;;;;;5088761;28;20474;-59
2023/08/25 00:19:49;;;;;;;3.13;2.73;;;24.80;99.90;;;;;;5093532;28;20462;-64
2023/08/25 00:22:15;;;;;;;2.90;2.27;;;24.80;99.90;;;;;;5090090;28;20476;-59
2023/08/25 00:24:42;;;;;;;3.53;2.63;;;24.80;99.90;;;;;;5087231;28;22410;-59
2023/08/25 00:27:09;;;;;;;3.20;2.73;;;24.80;99.90;;;;;;5093990;28;20452;-60
2023/08/25 00:29:37;;;;;;;5.70;3.70;;;24.80;99.90;;;;;;5089890;28;20456;-60
2023/08/25 00:32:04;;;;;;;3.40;3.10;;;24.80;99.90;;;;;;5090293;28;20439;-60
2023/08/25 00:34:31;;;;;;;2.40;2.20;;;24.80;99.90;;;;;;5077019;28;20557;-59
2023/08/25 00:36:57;;;;;;;5.80;2.80;;;24.80;99.90;;;;;;5094316;28;20957;-61
2023/08/25 00:39:24;;;;;;;4.70;3.37;;;24.80;99.90;;;;;;5095072;28;20465;-59
2023/08/25 00:41:51;;;;;;;3.27;3.07;;;24.80;99.90;;;;;;5093966;28;20478;-60
2023/08/25 00:44:17;;;;;;;2.93;2.73;;;24.80;99.90;;;;;;5089852;28;20443;-61
2023/08/25 00:46:45;;;;;;;3.23;3.00;;;24.80;99.90;;;;;;5081552;28;20988;-61
2023/08/25 00:49:13;;;;;;;3.07;2.87;;;24.80;99.90;;;;;;5084453;28;20946;-60
2023/08/25 00:51:39;;;;;;;3.23;2.37;;;24.80;99.90;;;;;;5089037;28;20471;-60
2023/08/25 00:54:07;;;;;;;2.73;2.53;;;24.80;99.90;;;;;;5089632;28;20462;-60
2023/08/25 00:56:35;;;;;;;3.10;2.80;;;24.80;99.90;;;;;;5093542;28;20464;-60
2023/08/25 00:59:03;;;;;;;3.60;3.33;;;24.80;99.90;;;;;;5092536;28;20439;-59
2023/08/25 01:01:30;;;;;;;3.03;2.80;;;24.80;99.90;;;;;;5089803;28;21046;-60
2023/08/25 01:03:58;;;;;;;3.20;2.87;;;24.80;99.90;;;;;;5091411;28;20799;-60
2023/08/25 01:06:25;;;;;;;3.70;2.60;;;24.80;99.90;;;;;;5096172;28;20462;-59
2023/08/25 01:08:52;;;;;;;3.40;2.70;;;24.80;99.90;;;;;;5096561;28;20459;-60
2023/08/25 01:11:31;;;;;;;3.20;2.83;;;24.80;99.90;;;;;;5099645;28;20442;-59
2023/08/25 01:14:06;;;;;;;2.97;2.77;;;24.80;99.90;;;;;;5097890;28;20463;-61
2023/08/25 01:16:37;;;;;;;2.97;2.67;;;24.80;99.90;;;;;;5096969;28;20809;-61
2023/08/25 01:19:24;;;;;;;3.13;2.83;;;24.80;99.90;;;;;;5094307;28;20826;-60
2023/08/25 01:21:58;;;;;;;3.97;2.73;;;24.80;99.90;;;;;;5090240;28;20478;-59
2023/08/25 01:24:30;;;;;;;3.40;3.10;;;24.80;99.90;;;;;;5093830;28;20465;-61
2023/08/25 01:26:59;;;;;;;3.20;2.50;;;24.80;99.90;;;;;;5096305;28;21012;-59
2023/08/25 01:29:25;;;;;;;2.97;2.67;;;24.80;99.90;;;;;;5099003;28;20571;-60
2023/08/25 01:31:52;;;;;;;3.00;2.70;;;24.80;99.90;;;;;;5097186;28;20466;-59
2023/08/25 01:34:19;;;;;;;3.37;3.07;;;24.80;99.90;;;;;;5095423;28;20459;-60
2023/08/25 01:36:52;;;;;;;3.30;2.67;;;24.80;99.90;;;;;;5093225;28;20467;-59
2023/08/25 01:39:19;;;;;;;2.77;2.47;;;24.80;99.90;;;;;;5093810;28;20550;-59
2023/08/25 01:41:47;;;;;;;3.20;3.00;;;24.80;99.90;;;;;;5092482;28;20484;-59
2023/08/25 01:44:17;;;;;;;3.20;2.60;;;24.80;99.90;;;;;;5094546;28;20436;-60
2023/08/25 01:46:49;;;;;;;2.47;2.27;;;24.80;99.90;;;;;;5091935;28;20458;-60
2023/08/25 01:49:18;;;;;;;4.33;2.93;;;24.80;99.90;;;;;;5073052;28;20458;-59
2023/08/25 01:51:46;;;;;;;3.23;2.93;;;24.80;99.90;;;;;;5074211;28;20466;-59
2023/08/25 01:54:13;;;;;;;3.50;2.83;;;24.80;99.90;;;;;;5094020;28;20458;-62
2023/08/25 01:56:40;;;;;;;3.93;2.70;;;24.80;99.90;;;;;;5092632;28;20459;-58
2023/08/25 01:59:07;;;;;;;2.63;2.43;;;24.80;99.90;;;;;;5094597;28;20461;-59
2023/08/25 02:01:35;;;;;;;3.23;3.00;;;24.70;99.90;;;;;;5092184;28;20457;-59
2023/08/25 02:04:01;;;;;;;2.80;2.60;;;24.70;99.90;;;;;;5092149;28;20830;-59
2023/08/25 02:06:29;;;;;;;3.20;2.90;;;24.80;99.90;;;;;;5091803;28;20495;-59
2023/08/25 02:08:55;;;;;;;2.90;2.40;;;24.70;99.90;;;;;;5092992;28;20908;-59
2023/08/25 02:11:22;;;;;;;2.70;2.43;;;24.70;99.90;;;;;;5093089;28;20472;-60
2023/08/25 02:13:49;;;;;;;2.77;2.57;;;24.70;99.90;;;;;;5092975;28;20454;-60
2023/08/25 02:16:15;;;;;;;4.20;3.10;;;24.70;99.90;;;;;;5091908;28;20459;-60
2023/08/25 02:18:43;;;;;;;2.90;2.50;;;24.70;99.90;;;;;;5093920;28;20459;-60
2023/08/25 02:21:10;;;;;;;2.50;2.30;;;24.70;99.90;;;;;;5090517;28;20955;-59
2023/08/25 02:23:37;;;;;;;3.03;2.80;;;24.70;99.90;;;;;;5090384;28;20834;-59
2023/08/25 02:26:03;;;;;;;4.07;2.57;;;24.70;99.90;;;;;;5093376;28;20458;-59
2023/08/25 02:28:30;;;;;;;2.90;2.70;;;24.70;99.90;;;;;;5093230;28;20815;-60
2023/08/25 02:30:57;;;;;;;2.47;2.27;;;24.70;99.90;;;;;;5093216;28;20459;-60
2023/08/25 02:33:23;;;;;;;3.03;2.83;;;24.70;99.90;;;;;;5091813;28;20483;-60
2023/08/25 02:35:51;;;;;;;3.20;2.90;;;24.70;99.90;;;;;;5094337;28;20816;-60
2023/08/25 02:38:18;;;;;;;3.00;2.70;;;24.70;99.90;;;;;;5094147;28;20452;-60
2023/08/25 02:40:49;;;;;;;2.63;2.40;;;24.70;99.90;;;;;;5090821;28;20455;-61
2023/08/25 02:43:16;;;;;;;2.87;2.60;;;24.70;99.90;;;;;;5094218;28;20501;-60
2023/08/25 02:45:43;;;;;;;2.60;2.40;;;24.70;99.90;;;;;;5091443;28;21264;-60
2023/08/25 02:48:10;;;;;;;2.70;2.50;;;24.70;99.90;;;;;;5088946;28;20458;-60
2023/08/25 02:50:36;;;;;;;2.83;2.50;;;24.70;99.90;;;;;;5089929;28;20984;-60
2023/08/25 02:53:05;;;;;;;3.00;2.70;;;24.70;99.90;;;;;;5093252;27;20463;-60
2023/08/25 02:55:31;;;;;;;3.00;2.70;;;24.70;99.90;;;;;;5092941;28;20456;-59
2023/08/25 02:57:58;;;;;;;2.47;2.27;;;24.70;99.90;;;;;;5092388;28;20466;-60
2023/08/25 03:00:25;;;;;;;3.20;2.90;;;24.70;99.90;;;;;;5095221;28;20487;-61
2023/08/25 03:02:52;;;;;;;2.80;2.57;;;24.70;99.90;;;;;;5087120;28;20479;-60
2023/08/25 03:05:19;;;;;;;2.33;2.13;;;24.70;99.90;;;;;;5093137;28;20465;-60
2023/08/25 03:07:46;;;;;;;2.60;2.40;;;24.70;99.90;;;;;;5094461;28;20547;-60
2023/08/25 03:10:14;;;;;;;2.97;2.60;;;24.70;99.90;;;;;;5091762;28;20469;-60
2023/08/25 03:12:41;;;;;;;2.90;2.67;;;24.70;99.90;;;;;;5089369;28;20517;-60
2023/08/25 03:15:09;;;;;;;3.10;2.90;;;24.70;99.90;;;;;;5090826;28;20454;-60
2023/08/25 03:17:35;;;;;;;2.63;2.43;;;24.70;99.90;;;;;;5089548;28;20454;-60
2023/08/25 03:20:02;;;;;;;2.90;2.70;;;24.70;99.90;;;;;;5084560;28;20440;-59
2023/08/25 03:22:29;;;;;;;2.50;2.30;;;24.70;99.90;;;;;;5082686;28;20475;-61
2023/08/25 03:24:56;;;;;;;2.13;1.93;;;24.70;99.90;;;;;;5084989;28;21071;-60
2023/08/25 03:27:25;;;;;;;3.20;2.90;;;24.70;99.90;;;;;;5084097;28;20475;-60
2023/08/25 03:29:51;;;;;;;2.80;2.60;;;24.70;99.90;;;;;;5084371;28;20507;-60
2023/08/25 03:32:18;;;;;;;2.60;2.40;;;24.70;99.90;;;;;;5093640;28;20462;-59
2023/08/25 03:34:45;;;;;;;2.70;2.50;;;24.70;99.90;;;;;;5092072;28;20444;-60
2023/08/25 03:37:12;;;;;;;2.83;2.63;;;24.70;99.90;;;;;;5092534;28;20823;-60
2023/08/25 03:39:38;;;;;;;2.57;2.37;;;24.70;99.90;;;;;;5093785;28;20541;-59
2023/08/25 03:42:05;;;;;;;3.20;2.90;;;24.70;99.90;;;;;;5093320;28;20454;-61
2023/08/25 03:44:34;;;;;;;2.93;2.50;;;24.70;99.90;;;;;;5091171;28;20459;-61
2023/08/25 03:47:00;;;;;;;2.67;2.47;;;24.70;99.90;;;;;;5093103;28;20442;-59
2023/08/25 03:49:28;;;;;;;3.20;2.90;;;24.60;99.90;;;;;;5085229;28;20996;-59
2023/08/25 03:51:54;;;;;;;3.50;2.40;;;24.60;99.90;;;;;;5081013;28;20504;-59
2023/08/25 03:54:21;;;;;;;2.43;2.23;;;24.70;99.90;;;;;;5092909;28;20470;-63
2023/08/25 03:56:48;;;;;;;3.23;2.93;;;24.70;99.90;;;;;;5090645;28;20454;-60
2023/08/25 03:59:14;;;;;;;3.10;2.73;;;24.60;99.90;;;;;;5094206;28;20801;-61
2023/08/25 04:01:42;;;;;;;2.30;2.10;;;24.60;99.90;;;;;;5093263;28;20455;-60
2023/08/25 04:04:09;;;;;;;2.87;2.60;;;24.60;99.90;;;;;;5095891;28;20480;-60
2023/08/25 04:06:36;;;;;;;2.77;2.57;;;24.60;99.90;;;;;;5095000;28;20831;-61
2023/08/25 04:09:03;;;;;;;2.63;2.43;;;24.70;99.90;;;;;;5086014;28;20461;-61
2023/08/25 04:11:29;;;;;;;2.27;2.07;;;24.60;99.90;;;;;;5091993;28;20461;-62
2023/08/25 04:13:56;;;;;;;2.87;2.67;;;24.60;99.90;;;;;;5088810;28;20564;-61
2023/08/25 04:16:23;;;;;;;2.53;2.33;;;24.60;99.90;;;;;;5081995;28;20931;-61
2023/08/25 04:18:51;;;;;;;2.53;2.33;;;24.60;99.90;;;;;;5088898;28;20459;-62
2023/08/25 04:21:18;;;;;;;2.70;2.23;;;24.60;99.90;;;;;;5088738;28;20457;-61
2023/08/25 04:23:44;;;;;;;2.30;2.10;;;24.60;99.90;;;;;;5086674;28;20471;-62
2023/08/25 04:26:11;;;;;;;2.70;2.50;;;24.60;99.90;;;;;;5089653;28;20460;-61
2023/08/25 04:28:38;;;;;;;2.73;2.43;;;24.60;99.90;;;;;;5088729;28;20458;-62
2023/08/25 04:31:04;;;;;;;2.67;2.47;;;24.60;99.90;;;;;;5086194;28;20485;-63
2023/08/25 04:33:31;;;;;;;2.43;2.23;;;24.60;99.90;;;;;;5085448;28;20459;-62
2023/08/25 04:35:59;;;;;;;2.47;2.27;;;24.60;99.90;;;;;;5086493;28;20459;-61
2023/08/25 04:38:26;;;;;;;2.73;2.53;;;24.60;99.90;;;;;;5084137;28;20470;-62
2023/08/25 04:40:53;;;;;;;2.43;2.23;;;24.60;99.90;;;;;;5088693;28;20577;-61
2023/08/25 04:43:19;;;;;;;2.57;2.30;;;24.60;99.90;;;;;;5090040;28;20483;-63
2023/08/25 04:45:46;;;;;;;2.67;2.23;;;24.60;99.90;;;;;;5082909;28;20944;-61
2023/08/25 04:48:13;;;;;;;2.30;2.10;;;24.60;99.90;;;;;;5091356;28;20927;-61
2023/08/25 04:50:40;;;;;;;3.10;2.17;;;24.60;99.90;;;;;;5088493;28;20848;-63
2023/08/25 04:53:08;;;;;;;2.77;2.57;;;24.60;99.90;;;;;;5088745;28;20469;-62
2023/08/25 04:55:34;;;;;;;2.77;2.57;;;24.60;99.90;;;;;;5089045;28;21083;-61
2023/08/25 04:58:01;;;;;;;2.57;2.37;;;24.60;99.90;;;;;;5089106;28;20454;-63
2023/08/25 05:00:30;;;;;;;2.67;2.47;;;24.60;99.90;;;;;;5087606;28;20470;-63
2023/08/25 05:02:56;;;;;;;2.40;2.20;;;24.60;99.90;;;;;;5089074;28;20507;-62
2023/08/25 05:05:23;;;;;;;2.70;2.50;;;24.60;99.90;;;;;;5089394;28;20463;-61
2023/08/25 05:07:50;;;;;;;2.67;2.43;;;24.60;99.90;;;;;;5094791;28;20889;-62
2023/08/25 05:10:18;;;;;;;2.27;2.00;;;24.60;99.90;;;;;;5090837;28;20761;-61
2023/08/25 05:12:45;;;;;;;2.20;1.90;;;24.60;99.90;;;;;;5092144;28;20472;-62
2023/08/25 05:15:11;;;;;;;2.17;1.97;;;24.60;99.90;;;;;;5090370;28;20454;-62
2023/08/25 05:17:38;;;;;;;2.00;1.90;;;24.60;99.90;;;;;;5093107;28;20463;-62
2023/08/25 05:20:07;;;;;;;2.10;1.90;;;24.60;99.90;;;;;;5094635;28;20442;-63
2023/08/25 05:22:33;;;;;;;2.87;2.23;;;24.60;99.90;;;;;;5092450;28;20469;-61
2023/08/25 05:25:00;;;;;;;2.27;2.07;;;24.60;99.90;;;;;;5091790;28;20966;-62
2023/08/25 05:27:28;;;;;;;2.50;2.30;;;24.60;99.90;;;;;;5090873;28;20465;-62
2023/08/25 05:29:55;;;;;;;2.30;2.10;;;24.60;99.90;;;;;;5093049;28;20474;-61
2023/08/25 05:32:21;;;;;;;2.40;2.20;;;24.60;99.90;;;;;;5092951;28;20460;-62
2023/08/25 05:34:48;;;;;;;3.00;2.80;;;24.60;99.90;;;;;;5093922;28;20465;-62
2023/08/25 05:37:15;;;;;;;2.17;1.97;;;24.60;99.90;;;;;;5092912;28;20831;-61
2023/08/25 05:39:42;;;;;;;2.37;2.17;;;24.60;99.90;;;;;;5092575;28;20452;-62
2023/08/25 05:42:09;;;;;;;1.87;1.77;;;24.60;99.90;;;;;;5092330;28;21025;-62
2023/08/25 05:44:37;;;;;;;2.40;2.20;;;24.60;99.90;;;;;;5091228;28;20527;-61
2023/08/25 05:47:03;;;;;;;2.60;2.40;;;24.60;99.90;;;;;;5090764;28;20533;-62
2023/08/25 05:49:30;;;;;;;2.60;2.40;;;24.60;99.90;;;;;;5092321;28;20452;-62
2023/08/25 05:51:57;;;;;;;2.23;2.00;;;24.60;99.90;;;;;;5088307;28;20870;-61
2023/08/25 05:54:23;;;;;;;2.23;2.03;;;24.60;99.90;;;;;;5087205;28;20477;-61
2023/08/25 05:56:50;;;;;;;2.20;2.00;;;24.60;99.90;;;;;;5090412;28;20498;-61
2023/08/25 05:59:17;;;;;;;2.30;2.10;;;24.60;99.90;;;;;;5090703;28;20446;-61
2023/08/25 06:01:45;;;;;;;2.50;2.30;;;24.60;99.90;;;;;;5090719;28;21381;-62
2023/08/25 06:04:12;;;;;;;2.47;2.27;;;24.60;99.90;;;;;;5090822;28;21804;-61
2023/08/25 06:06:39;;;;;;;2.67;2.47;;;24.60;99.90;;;;;;5088553;28;20831;-61
2023/08/25 06:09:08;;;;;;;2.70;2.50;;;24.60;99.90;;;;;;5089030;28;20456;-62
2023/08/25 06:11:35;;;;;;;2.50;2.30;;;24.60;99.90;;;;;;5069100;28;20456;-62
2023/08/25 06:14:01;;;;;;;2.40;2.17;;;24.60;99.90;;;;;;5065271;28;20910;-61
2023/08/25 06:16:28;;;;;;;2.37;2.17;;;24.60;99.90;;;;;;5060407;28;20467;-61
2023/08/25 06:18:56;;;;;;;2.43;1.93;;;24.60;99.90;;;;;;5060213;28;20486;-62
2023/08/25 06:21:23;;;;;;;2.87;2.67;;;24.60;99.90;;;;;;5062242;28;20455;-62
2023/08/25 06:23:50;;;;;;;2.10;1.90;;;24.60;99.90;;;;;;5058435;28;20919;-62
2023/08/25 06:26:17;;;;;;;2.57;2.37;;;24.60;99.90;;;;;;5060819;28;20456;-60
2023/08/25 06:28:44;;;;;;;2.67;2.47;;;24.60;99.90;;;;;;5064225;28;20454;-61
2023/08/25 06:31:10;;;;;;;2.27;2.07;;;24.60;99.90;;;;;;5061374;28;21060;-63
2023/08/25 06:33:38;;;;;;;2.20;2.10;;;24.60;99.90;;;;;;5060798;28;20509;-63
2023/08/25 06:36:07;;;;;;;1.73;1.63;;;24.60;99.90;;;;;;5061342;28;20470;-63
2023/08/25 06:38:34;;;;;;;2.50;2.30;;;24.60;99.90;;;;;;5061578;28;20463;-61
2023/08/25 06:41:01;;;;;;;2.43;1.80;;;24.60;99.90;;;;;;5061827;28;20452;-62
2023/08/25 06:43:27;;;;;;;2.20;2.00;;;24.60;99.90;;;;;;5060868;28;21017;-62
2023/08/25 06:45:54;;;;;;;2.00;1.90;;;24.60;99.90;;;;;;5061373;28;20494;-63
2023/08/25 06:48:21;;;;;;;2.17;1.97;;;24.60;99.90;;;;;;5061038;28;20462;-61
2023/08/25 06:50:48;;;;;;;2.17;1.97;;;24.60;99.90;;;;;;5059237;27;20898;-63
2023/08/25 06:53:17;;;;;;;2.50;2.10;;;24.60;99.90;;;;;;5058324;28;20973;-62
2023/08/25 06:55:43;;;;;;;2.53;2.30;;;24.60;99.90;;;;;;5056453;28;20819;-63
2023/08/25 06:58:10;;;;;;;2.40;2.20;;;24.60;99.90;;;;;;5055537;28;20463;-62
2023/08/25 07:00:37;;;;;;;2.00;1.90;;;24.60;99.90;;;;;;5058384;28;20482;-62
2023/08/25 07:03:04;;;;;;;3.00;2.47;;;24.70;99.90;;;;;;5059679;28;21729;-62
2023/08/25 07:05:30;;;;;;;2.00;1.90;;;24.70;99.90;;;;;;5061500;28;20587;-61
2023/08/25 07:07:58;;;;;;;2.13;2.00;;;24.70;99.90;;;;;;5059984;28;20463;-62
2023/08/25 07:10:26;;;;;;;2.37;2.17;;;24.70;99.90;;;;;;5061528;28;20507;-62
2023/08/25 07:12:53;;;;;;;1.80;1.70;;;24.70;99.90;;;;;;5082845;28;20462;-61
2023/08/25 07:15:20;;;;;;;2.50;2.30;;;24.70;99.90;;;;;;5088113;28;20451;-61
2023/08/25 07:17:47;;;;;;;8.80;7.90;;;24.70;99.90;;;;;;5081689;28;20607;-61
2023/08/25 07:20:14;;;;;;;8.87;8.00;;;24.70;99.90;;;;;;5086739;28;20461;-62
2023/08/25 07:22:41;;;;;;;10.57;9.67;;;24.70;99.90;;;;;;5087805;28;20447;-61
2023/08/25 07:25:08;;;;;;;11.70;10.50;;;24.70;99.90;;;;;;5086287;28;20475;-64
2023/08/25 07:27:36;;;;;;;10.00;9.10;;;24.70;99.90;;;;;;5086662;28;20467;-63
2023/08/25 07:30:07;;;;;;;15.50;10.03;;;24.70;99.90;;;;;;5087633;28;20506;-62
2023/08/25 07:32:34;;;;;;;12.67;10.10;;;24.70;99.90;;;;;;5086741;28;21018;-63
2023/08/25 07:35:01;;;;;;;11.33;10.23;;;24.70;99.90;;;;;;5085799;28;20463;-61
2023/08/25 07:37:27;;;;;;;12.57;10.90;;;24.70;99.90;;;;;;5086638;28;20463;-62
2023/08/25 07:39:55;;;;;;;12.10;9.43;;;24.70;99.90;;;;;;5088067;28;20724;-61
2023/08/25 07:42:23;;;;;;;9.90;8.30;;;24.70;99.90;;;;;;5085041;28;20811;-61
2023/08/25 07:44:51;;;;;;;10.20;9.20;;;24.70;99.90;;;;;;5086141;28;21107;-62
2023/08/25 07:47:18;;;;;;;11.30;8.40;;;24.70;99.90;;;;;;5085547;28;20461;-62
2023/08/25 07:49:44;;;;;;;12.47;7.07;;;24.70;99.90;;;;;;5084848;28;20662;-62
2023/08/25 07:52:11;;;;;;;9.13;6.90;;;24.70;99.90;;;;;;5087671;28;20955;-62
2023/08/25 07:54:38;;;;;;;11.47;7.20;;;24.70;99.90;;;;;;5083149;28;20462;-62
2023/08/25 07:57:05;;;;;;;7.83;7.07;;;24.70;99.90;;;;;;5080947;28;20577;-62
2023/08/25 07:59:32;;;;;;;8.63;6.33;;;24.70;99.90;;;;;;5084205;28;20463;-62
2023/08/25 08:02:02;;;;;;;9.93;6.67;;;24.70;99.90;;;;;;5077174;28;20977;-62
2023/08/25 08:04:30;;;;;;;10.27;6.03;;;24.70;99.90;;;;;;5086605;28;20479;-61
2023/08/25 08:06:57;;;;;;;7.43;6.60;;;24.70;99.90;;;;;;5085518;28;20455;-62
2023/08/25 08:09:25;;;;;;;11.53;6.27;;;24.70;99.90;;;;;;5078649;28;20464;-61
2023/08/25 08:11:52;;;;;;;10.07;6.50;;;24.70;99.90;;;;;;5085743;28;20672;-61
2023/08/25 08:14:19;;;;;;;7.63;6.33;;;24.60;99.90;;;;;;5088292;28;20448;-61
2023/08/25 08:16:46;;;;;;;7.57;5.63;;;24.70;99.90;;;;;;5091158;28;20466;-62
2023/08/25 08:19:14;;;;;;;7.60;6.67;;;24.60;99.90;;;;;;5093918;28;21044;-62
2023/08/25 08:21:41;;;;;;;10.30;6.80;;;24.60;99.90;;;;;;5088693;28;20495;-62
2023/08/25 08:24:09;;;;;;;9.27;7.40;;;24.60;99.90;;;;;;5092195;28;20478;-61
2023/08/25 08:26:36;;;;;;;8.53;7.73;;;24.60;99.90;;;;;;5088248;28;20874;-62
2023/08/25 08:29:03;;;;;;;11.07;8.20;;;24.60;99.90;;;;;;5088786;28;20547;-63
2023/08/25 08:31:30;;;;;;;8.80;7.67;;;24.60;99.90;;;;;;5089411;28;20498;-62
2023/08/25 08:33:56;;;;;;;9.30;7.40;;;24.60;99.90;;;;;;5091056;28;20447;-62
2023/08/25 08:36:24;;;;;;;7.63;6.93;;;24.60;99.90;;;;;;5089153;27;20463;-62
2023/08/25 08:38:52;;;;;;;5.70;5.20;;;24.60;99.90;;;;;;5089884;28;20806;-63
2023/08/25 08:41:19;;;;;;;8.53;5.70;;;24.60;99.90;;;;;;5082269;28;21036;-60
2023/08/25 08:43:49;;;;;;;6.73;6.10;;;24.60;99.90;;;;;;5078279;28;20474;-61
2023/08/25 08:46:18;;;;;;;12.77;7.20;;;24.60;99.90;;;;;;5086435;28;20444;-58
2023/08/25 08:48:46;;;;;;;10.37;7.93;;;24.60;99.90;;;;;;5086377;28;20462;-58
2023/08/25 08:51:16;;;;;;;6.93;6.17;;;24.70;99.90;;;;;;5084593;28;20490;-51
2023/08/25 08:53:44;;;;;;;8.03;6.57;;;24.70;99.90;;;;;;5083645;28;20463;-63
2023/08/25 08:56:11;;;;;;;7.80;6.37;;;24.70;99.90;;;;;;5083079;28;20543;-62
2023/08/25 08:58:38;;;;;;;13.60;6.27;;;24.70;99.90;;;;;;5082498;28;20462;-64
2023/08/25 09:01:30;;;;;;;7.20;5.63;;;24.70;99.90;;;;;;5084606;27;20456;-70
2023/08/25 09:04:07;;;;;;;8.03;5.80;;;24.60;99.90;;;;;;5086164;28;20468;-63
2023/08/25 09:06:36;;;;;;;7.03;6.17;;;24.60;99.90;;;;;;5085554;28;20962;-65
2023/08/25 09:09:06;;;;;;;9.40;7.17;;;24.60;99.90;;;;;;5075127;28;20451;-65
2023/08/25 09:11:33;;;;;;;7.90;7.10;;;24.60;99.90;;;;;;5071428;28;20448;-65
2023/08/25 09:14:04;;;;;;;11.67;6.43;;;24.60;99.90;;;;;;5080039;28;20482;-65
2023/08/25 09:16:31;;;;;;;5.53;4.90;;;24.60;99.90;;;;;;5079078;28;20442;-67
2023/08/25 09:19:01;;;;;;;9.53;6.57;;;24.60;99.90;;;;;;5085941;28;21409;-65
2023/08/25 09:21:28;;;;;;;6.93;6.23;;;24.60;99.90;;;;;;5087597;28;20808;-62
2023/08/25 09:23:57;;;;;;;11.10;5.07;;;24.60;99.90;;;;;;5086933;28;20546;-63
2023/08/25 09:26:25;;;;;;;9.60;5.00;;;24.70;99.90;;;;;;5088173;28;20462;-62
2023/08/25 09:28:54;;;;;;;7.30;5.20;;;24.70;99.90;;;;;;5087465;28;21127;-63
2023/08/25 09:31:22;;;;;;;9.37;4.47;;;24.70;99.90;;;;;;5091529;28;20490;-64
2023/08/25 09:33:50;;;;;;;8.07;6.53;;;24.70;99.90;;;;;;5091035;28;20814;-63
2023/08/25 09:36:16;;;;;;;7.43;6.10;;;24.70;99.90;;;;;;5085841;28;20460;-64
2023/08/25 09:38:45;;;;;;;5.87;4.93;;;24.80;99.90;;;;;;5090863;28;20939;-61
2023/08/25 09:41:12;;;;;;;6.30;5.60;;;24.80;99.90;;;;;;5094577;28;20454;-65
2023/08/25 09:43:40;;;;;;;6.50;5.60;;;24.80;99.90;;;;;;5092926;28;21107;-64
2023/08/25 09:46:08;;;;;;;9.13;5.37;;;24.80;99.90;;;;;;5086251;28;20493;-63
2023/08/25 09:48:36;;;;;;;5.83;5.03;;;24.80;99.90;;;;;;5090068;28;20524;-53
2023/08/25 09:51:05;;;;;;;5.47;4.97;;;24.80;99.90;;;;;;5080462;28;20455;-58
2023/08/25 09:53:33;;;;;;;6.50;4.50;;;24.80;99.90;;;;;;5074833;28;20937;-63
2023/08/25 09:56:04;;;;;;;6.23;5.13;;;24.80;99.90;;;;;;5075724;28;20467;-61
2023/08/25 09:58:31;;;;;;;4.90;4.30;;;24.90;99.90;;;;;;5083939;28;20955;-60
2023/08/25 10:01:00;;;;;;;8.50;5.10;;;24.90;99.90;;;;;;5083643;28;20464;-63
2023/08/25 10:03:27;;;;;;;5.20;4.70;;;24.90;99.90;;;;;;5073550;28;21049;-64
2023/08/25 10:05:54;;;;;;;7.53;4.33;;;24.90;99.90;;;;;;5086857;28;20572;-66
2023/08/25 10:08:23;;;;;;;5.10;4.60;;;24.90;99.90;;;;;;5086944;28;20466;-64
2023/08/25 10:10:49;;;;;;;6.30;4.60;;;24.90;99.90;;;;;;5086900;28;20466;-64
2023/08/25 10:13:18;;;;;;;4.77;4.30;;;25.00;99.90;;;;;;5084983;28;20471;-62
2023/08/25 10:15:48;;;;;;;5.07;4.60;;;25.00;99.90;;;;;;5085509;28;20754;-59
2023/08/25 10:18:16;;;;;;;5.83;3.80;;;25.00;99.90;;;;;;5088224;28;20730;-55
2023/08/25 10:20:44;;;;;;;8.00;4.53;;;25.00;99.90;;;;;;5086439;28;20462;-51
2023/08/25 10:23:11;;;;;;;5.90;4.33;;;25.00;99.90;;;;;;5088361;28;20576;-58
2023/08/25 10:25:38;;;;;;;7.77;4.77;;;25.00;99.90;;;;;;5088973;28;20807;-59
2023/08/25 10:28:08;;;;;;;8.27;4.83;;;25.00;99.90;;;;;;5089554;28;20972;-67
2023/08/25 10:30:35;;;;;;;7.13;4.50;;;25.10;99.90;;;;;;5087583;28;20460;-64
2023/08/25 10:33:05;;;;;;;5.40;4.60;;;25.10;99.90;;;;;;5089093;28;20488;-62
2023/08/25 10:35:44;;;;;;;5.50;4.80;;;25.10;99.90;;;;;;5090486;28;20463;-52
2023/08/25 10:38:35;;;;;;;5.70;4.30;;;25.10;99.90;;;;;;5088787;27;20459;-60
2023/08/25 10:41:12;;;;;;;5.83;3.60;;;25.10;99.90;;;;;;5083206;28;20455;-61
2023/08/25 10:43:39;;;;;;;5.90;4.33;;;25.10;99.90;;;;;;5088731;28;20521;-59
2023/08/25 10:46:07;;;;;;;5.40;3.50;;;25.10;99.90;;;;;;5088368;28;20486;-59
2023/08/25 10:48:34;;;;;;;4.83;3.80;;;25.20;99.90;;;;;;5087285;27;20462;-62
2023/08/25 10:51:09;;;;;;;5.90;3.90;;;25.20;99.90;;;;;;5085982;28;20463;-60
2023/08/25 10:53:37;;;;;;;4.97;3.90;;;25.20;99.90;;;;;;5085149;28;20520;-56
2023/08/25 10:56:22;;;;;;;3.90;3.50;;;25.20;99.90;;;;;;5087312;28;20459;-58
2023/08/25 10:58:59;;;;;;;4.80;4.30;;;25.30;99.90;;;;;;5085787;28;20460;-60
2023/08/25 11:01:27;;;;;;;4.10;3.67;;;25.30;99.90;;;;;;5090029;28;20451;-59
2023/08/25 11:04:05;;;;;;;4.90;3.47;;;25.30;99.90;;;;;;5088038;28;20463;-59
2023/08/25 11:06:43;;;;;;;5.70;3.63;;;25.30;99.90;;;;;;5091552;28;20482;-61
2023/08/25 11:09:30;;;;;;;5.57;4.33;;;25.30;99.90;;;;;;5089405;28;20452;-57
2023/08/25 11:11:58;;;;;;;3.73;3.30;;;25.30;99.90;;;;;;5085044;28;20490;-61
2023/08/25 11:14:28;;;;;;;4.93;4.17;;;25.30;99.90;;;;;;5060561;28;20487;-60
2023/08/25 11:16:55;;;;;;;4.37;3.93;;;25.40;99.90;;;;;;5081342;28;20858;-60
2023/08/25 11:19:22;;;;;;;3.43;3.13;;;25.40;99.90;;;;;;5085565;27;20459;-56
2023/08/25 11:21:59;;;;;;;4.30;4.00;;;25.40;99.90;;;;;;5084390;28;20465;-60
2023/08/25 11:24:25;;;;;;;6.00;4.50;;;25.40;99.90;;;;;;5087231;28;20649;-55
2023/08/25 11:26:52;;;;;;;6.50;4.07;;;25.40;99.90;;;;;;5085418;28;21009;-56
2023/08/25 11:29:19;;;;;;;6.97;4.37;;;25.40;99.90;;;;;;5085182;28;20451;-55
2023/08/25 11:31:45;;;;;;;5.20;3.97;;;25.40;99.90;;;;;;5085233;28;20965;-60
2023/08/25 11:34:12;;;;;;;5.50;4.03;;;25.40;99.90;;;;;;5084286;28;20459;-58
2023/08/25 11:36:39;;;;;;;5.03;4.63;;;25.40;99.90;;;;;;5085270;28;20447;-60
2023/08/25 11:39:16;;;;;;;5.67;3.60;;;25.40;99.90;;;;;;5086414;28;20812;-57
2023/08/25 11:41:42;;;;;;;6.63;4.27;;;25.40;99.90;;;;;;5083335;28;20458;-60
2023/08/25 11:44:11;;;;;;;4.87;3.70;;;25.40;99.90;;;;;;5082198;28;20926;-60
2023/08/25 11:46:38;;;;;;;9.50;4.13;;;25.40;99.90;;;;;;5081987;28;20474;-56
2023/08/25 11:49:06;;;;;;;6.03;4.10;;;25.40;99.90;;;;;;5089683;28;20455;-57
2023/08/25 11:51:35;;;;;;;4.93;3.83;;;25.40;99.90;;;;;;5087343;28;21017;-62
2023/08/25 11:54:01;;;;;;;5.50;3.90;;;25.40;99.90;;;;;;5083823;28;20466;-61
2023/08/25 11:56:29;;;;;;;6.00;3.80;;;25.30;99.90;;;;;;5089565;28;20466;-59
2023/08/25 11:58:56;;;;;;;4.20;3.20;;;25.30;99.90;;;;;;5090476;28;20810;-56
2023/08/25 12:01:23;;;;;;;3.67;3.30;;;25.30;99.90;;;;;;5079362;28;20490;-60
2023/08/25 12:03:49;;;;;;;4.70;3.33;;;25.30;99.90;;;;;;5079692;28;20466;-56
2023/08/25 12:06:16;;;;;;;3.40;3.07;;;25.30;99.90;;;;;;5083625;28;20479;-61
2023/08/25 12:08:43;;;;;;;5.63;3.73;;;25.30;99.90;;;;;;5079672;28;20464;-53
2023/08/25 12:11:11;;;;;;;5.73;3.33;;;25.30;99.90;;;;;;5082696;28;21103;-60
2023/08/25 12:13:43;;;;;;;4.70;2.57;;;25.30;99.90;;;;;;5080683;28;20463;-53
2023/08/25 12:16:13;;;;;;;9.50;3.70;;;25.30;99.90;;;;;;5080458;28;20528;-59
2023/08/25 12:18:42;;;;;;;3.97;3.27;;;25.30;99.90;;;;;;5082084;28;20465;-61
2023/08/25 12:21:09;;;;;;;4.37;3.37;;;25.30;99.90;;;;;;5081082;28;20462;-57
2023/08/25 12:23:36;;;;;;;3.70;3.20;;;25.30;99.90;;;;;;5080485;28;20527;-61
2023/08/25 12:26:04;;;;;;;4.27;3.60;;;25.30;99.90;;;;;;5082109;28;20597;-59
2023/08/25 12:28:31;;;;;;;5.00;3.00;;;25.30;99.90;;;;;;5081157;28;20501;-55
2023/08/25 12:31:00;;;;;;;8.10;3.57;;;25.30;99.90;;;;;;5082497;28;20470;-58
2023/08/25 12:33:26;;;;;;;5.00;3.30;;;25.30;99.90;;;;;;5081147;28;20458;-63
2023/08/25 12:35:53;;;;;;;4.30;3.53;;;25.30;99.90;;;;;;5085193;28;21099;-57
2023/08/25 12:38:20;;;;;;;6.53;3.33;;;25.30;99.90;;;;;;5083534;28;20906;-58
2023/08/25 12:40:47;;;;;;;4.30;2.57;;;;;;;;;;5083543;28;20549;-58
2023/08/25 12:43:14;;;;;;;2.53;2.33;;;25.20;99.90;;;;;;5081971;28;20459;-60
2023/08/25 12:45:41;;;;;;;3.13;2.93;;;25.20;99.90;;;;;;5077987;28;20501;-59
2023/08/25 12:48:09;;;;;;;3.47;3.17;;;25.20;99.90;;;;;;5083065;28;20466;-58